Time;durP1;ratioP1;P1;durP2;ratioP2;P2;SDS_P1;SDS_P2;PMS_P1;PMS_P2;Temp;Humidity;BMP_temperature;BMP_pressure;BME280_temperature;BME280_humidity;BME280_pressure;Samples;Min_cycle;Max_cycle;Signal;HPM_P1;HPM_P2
2021/07/25 00:02:25;;;;;;;0.25;0.25;;;;;;;19.14;54.52;100188.91;5029591;28;20056;-59
2021/07/25 00:04:51;;;;;;;0.10;0.10;;;;;;;19.11;55.01;100201.56;5029445;28;20045;-59
2021/07/25 00:07:17;;;;;;;0.35;0.35;;;;;;;19.17;54.75;100196.56;5029208;28;20045;-59
2021/07/25 00:09:43;;;;;;;0.30;0.30;;;;;;;19.23;54.35;100193.44;5029182;28;20482;-59
2021/07/25 00:12:11;;;;;;;0.22;0.22;;;;;;;19.32;53.78;100190.97;5028304;28;20132;-59
2021/07/25 00:14:37;;;;;;;0.10;0.10;;;;;;;19.26;53.29;100184.38;5011856;28;20041;-59
2021/07/25 00:17:03;;;;;;;0.10;0.10;;;;;;;19.39;53.06;100192.97;5029373;28;20126;-59
2021/07/25 00:19:31;;;;;;;0.20;0.20;;;;;;;19.51;52.38;100188.44;5011565;28;20088;-59
2021/07/25 00:21:57;;;;;;;0.35;0.35;;;;;;;19.55;52.53;100195.16;5029241;28;20076;-59
2021/07/25 00:24:29;;;;;;;0.10;0.10;;;;;;;19.60;52.10;100193.78;5029083;28;20088;-58
2021/07/25 00:26:58;;;;;;;0.15;0.15;;;;;;;19.66;51.47;100209.16;5028039;28;20400;-58
2021/07/25 00:29:25;;;;;;;0.20;0.20;;;;;;;19.52;52.79;100187.47;5032601;28;20114;-59
2021/07/25 00:31:51;;;;;;;0.50;0.50;;;;;;;19.54;53.10;100204.06;5033211;28;20038;-57
2021/07/25 00:34:17;;;;;;;0.20;0.20;;;;;;;19.48;53.21;100210.72;5015349;28;20049;-59
2021/07/25 00:36:43;;;;;;;0.25;0.25;;;;;;;19.32;53.40;100191.81;5032938;28;20111;-58
2021/07/25 00:39:10;;;;;;;0.20;0.20;;;;;;;19.39;53.31;100205.34;5031645;28;20077;-58
2021/07/25 00:41:56;;;;;;;0.10;0.10;;;;;;;19.39;53.47;100206.19;5032970;28;20068;-58
2021/07/25 00:44:42;;;;;;;0.10;0.10;;;;;;;19.34;53.41;100202.28;5032808;28;20104;-58
2021/07/25 00:47:28;;;;;;;0.20;0.20;;;;;;;19.31;52.88;100178.69;5032502;28;20046;-57
2021/07/25 00:50:14;;;;;;;0.10;0.10;;;;;;;19.52;52.83;100201.56;5018072;28;20139;-58
2021/07/25 00:53:02;;;;;;;0.10;0.10;;;;;;;19.55;52.37;100198.63;5031742;28;20510;-58
2021/07/25 00:55:48;;;;;;;0.32;0.32;;;;;;;19.63;51.73;100204.09;5018316;28;20481;-56
2021/07/25 00:58:38;;;;;;;0.10;0.10;;;;;;;19.72;51.39;100207.78;5032418;28;20144;-60
2021/07/25 01:01:24;;;;;;;0.10;0.10;;;;;;;19.73;51.54;100204.16;5032315;28;20056;-60
2021/07/25 01:04:21;;;;;;;0.10;0.10;;;;;;;19.80;51.13;100209.78;5018011;28;20648;-58
2021/07/25 01:07:25;;;;;;;0.10;0.10;;;;;;;19.79;51.37;100210.72;5017853;28;20038;-57
2021/07/25 01:10:17;;;;;;;0.10;0.10;;;;;;;19.83;50.63;100209.50;5032427;28;20096;-59
2021/07/25 01:13:12;;;;;;;0.10;0.10;;;;;;;19.86;51.10;100215.34;5032502;28;20047;-58
2021/07/25 01:15:58;;;;;;;0.10;0.10;;;;;;;19.82;51.54;100218.41;5004259;28;20058;-58
2021/07/25 01:18:50;;;;;;;0.22;0.22;;;;;;;19.70;51.65;100210.53;5017279;28;20548;-59
2021/07/25 01:21:36;;;;;;;0.10;0.10;;;;;;;19.75;51.21;100218.94;5031869;28;20057;-56
2021/07/25 01:24:22;;;;;;;0.10;0.10;;;;;;;19.76;51.52;100217.16;5031976;28;20076;-56
2021/07/25 01:27:08;;;;;;;0.10;0.10;;;;;;;19.81;51.74;100228.16;5017464;28;20046;-57
2021/07/25 01:29:55;;;;;;;0.20;0.20;;;;;;;19.76;52.01;100225.91;5017250;28;20104;-59
2021/07/25 01:32:42;;;;;;;0.10;0.10;;;;;;;19.76;51.70;100231.22;5016994;28;20553;-56
2021/07/25 01:35:28;;;;;;;0.25;0.25;;;;;;;19.65;52.25;100222.53;5031816;28;20255;-58
2021/07/25 01:38:14;;;;;;;0.10;0.10;;;;;;;19.64;53.21;100231.44;5030935;28;20503;-57
2021/07/25 01:41:11;;;;;;;0.10;0.10;;;;;;;19.62;52.96;100226.28;5016735;28;20053;-57
2021/07/25 01:43:57;;;;;;;0.10;0.10;;;;;;;19.66;53.27;100224.22;5032072;28;20134;-58
2021/07/25 01:46:42;;;;;;;0.10;0.10;;;;;;;19.61;53.64;100208.69;5031480;28;20569;-60
2021/07/25 01:49:28;;;;;;;0.28;0.28;;;;;;;19.71;52.10;100235.22;5031518;28;20056;-59
2021/07/25 01:52:14;;;;;;;1.02;1.02;;;;;;;19.67;51.29;100218.75;5031696;28;20598;-58
2021/07/25 01:55:00;;;;;;;0.10;0.10;;;;;;;19.80;51.43;100233.63;5031500;28;20518;-56
2021/07/25 01:57:46;;;;;;;0.47;0.47;;;;;;;20.05;49.69;100231.34;5031485;28;20049;-59
2021/07/25 02:00:32;;;;;;;0.10;0.10;;;;;;;20.29;48.98;100228.31;5031196;28;20559;-59
2021/07/25 02:03:22;;;;;;;0.10;0.10;;;;;;;20.37;48.66;100228.50;5031527;28;20111;-58
2021/07/25 02:06:08;;;;;;;0.13;0.13;;;;;;;20.33;49.42;100229.75;5031420;28;20515;-58
2021/07/25 02:08:53;;;;;;;0.10;0.10;;;;;;;20.22;50.22;100238.59;5031553;28;20284;-59
2021/07/25 02:11:39;;;;;;;8.25;1.83;;;;;;;20.11;50.56;100235.25;5031079;28;20107;-58
2021/07/25 02:14:25;;;;;;;0.15;0.15;;;;;;;20.34;48.11;100228.78;5031183;28;20049;-58
2021/07/25 02:17:11;;;;;;;0.10;0.10;;;;;;;20.44;48.34;100253.50;5031202;28;20058;-58
2021/07/25 02:19:57;;;;;;;0.10;0.10;;;;;;;20.35;48.16;100241.06;5031175;28;20045;-59
2021/07/25 02:22:43;;;;;;;0.10;0.10;;;;;;;20.30;49.10;100237.97;5030926;28;20057;-56
2021/07/25 02:25:29;;;;;;;0.30;0.30;;;;;;;20.32;48.86;100243.16;5030796;28;20061;-58
2021/07/25 02:28:15;;;;;;;0.15;0.15;;;;;;;20.38;48.62;100245.25;5030999;28;20058;-58
2021/07/25 02:31:01;;;;;;;0.10;0.10;;;;;;;20.47;47.84;100258.53;5030814;28;20057;-58
2021/07/25 02:33:47;;;;;;;0.10;0.10;;;;;;;20.38;48.09;100246.09;5030857;28;20053;-58
2021/07/25 02:36:32;;;;;;;0.10;0.10;;;;;;;20.40;48.03;100262.69;5029528;28;20506;-58
2021/07/25 02:39:19;;;;;;;0.10;0.10;;;;;;;20.41;48.65;100263.53;5030810;28;20046;-59
2021/07/25 02:42:05;;;;;;;0.30;0.30;;;;;;;20.36;49.42;100266.59;5030722;28;20473;-60
2021/07/25 02:44:51;;;;;;;0.10;0.10;;;;;;;20.33;49.77;100255.41;5030791;28;20049;-59
2021/07/25 02:47:36;;;;;;;0.20;0.20;;;;;;;20.31;49.79;100258.22;5015832;28;20049;-59
2021/07/25 02:50:22;;;;;;;0.10;0.10;;;;;;;20.32;49.39;100262.53;5030491;28;20142;-60
2021/07/25 02:53:08;;;;;;;0.20;0.20;;;;;;;20.32;49.99;100267.03;5030640;28;20053;-59
2021/07/25 02:55:54;;;;;;;0.20;0.20;;;;;;;20.29;49.60;100254.84;5015791;28;20052;-60
2021/07/25 02:58:40;;;;;;;0.10;0.10;;;;;;;20.41;48.58;100263.53;5029143;28;20515;-58
2021/07/25 03:01:26;;;;;;;0.20;0.20;;;;;;;20.59;47.57;100264.53;5030092;28;20045;-59
2021/07/25 03:04:11;;;;;;;0.10;0.10;;;;;;;20.62;47.25;100272.22;5030427;28;20045;-59
2021/07/25 03:06:58;;;;;;;0.13;0.13;;;;;;;20.64;48.23;100270.28;5030304;28;20133;-59
2021/07/25 03:09:43;;;;;;;0.10;0.10;;;;;;;20.73;47.11;100272.94;5029993;28;20123;-59
2021/07/25 03:12:29;;;;;;;0.10;0.10;;;;;;;20.69;49.92;100283.97;5029805;28;20049;-58
2021/07/25 03:15:15;;;;;;;0.28;0.28;;;;;;;20.70;49.29;100281.19;5029895;28;20041;-58
2021/07/25 03:18:01;;;;;;;0.10;0.10;;;;;;;20.70;49.26;100280.34;5030105;28;20057;-58
2021/07/25 03:20:47;;;;;;;0.13;0.13;;;;;;;20.66;49.34;100279.78;5029652;28;20049;-58
2021/07/25 03:23:33;;;;;;;0.30;0.30;;;;;;;20.67;49.48;100278.81;5030068;28;20442;-58
2021/07/25 03:26:19;;;;;;;0.20;0.20;;;;;;;20.74;49.43;100285.22;5015349;28;20453;-55
2021/07/25 03:29:05;;;;;;;0.17;0.17;;;;;;;20.84;48.98;100289.72;5015055;28;20082;-55
2021/07/25 03:31:50;;;;;;;0.10;0.10;;;;;;;20.87;48.44;100276.16;5014691;28;20051;-57
2021/07/25 03:34:36;;;;;;;0.10;0.10;;;;;;;20.95;48.65;100279.78;5029469;28;20057;-55
2021/07/25 03:37:23;;;;;;;0.10;0.10;;;;;;;20.99;48.97;100283.00;5029712;28;20053;-57
2021/07/25 03:40:09;;;;;;;0.10;0.10;;;;;;;21.10;48.26;100297.03;5029729;28;20057;-56
2021/07/25 03:42:55;;;;;;;0.10;0.10;;;;;;;21.23;47.37;100299.41;5029767;28;20045;-58
2021/07/25 03:45:46;;;;;;;0.10;0.10;;;;;;;21.40;46.00;100300.50;5029287;28;20053;-57
2021/07/25 03:48:32;;;;;;;0.10;0.10;;;;;;;21.60;46.29;100300.31;5029125;28;20115;-57
2021/07/25 03:51:18;;;;;;;0.10;0.10;;;;;;;21.83;46.64;100303.44;5029548;28;20496;-57
2021/07/25 03:54:05;;;;;;;0.20;0.20;;;;;;;22.04;46.33;100300.63;5029548;28;20580;-57
2021/07/25 03:56:51;;;;;;;0.13;0.13;;;;;;;22.26;46.23;100302.88;5029326;28;20053;-58
2021/07/25 03:59:37;;;;;;;0.20;0.20;;;;;;;22.54;45.22;100304.56;5014630;28;20132;-57
2021/07/25 04:02:23;;;;;;;0.38;0.38;;;;;;;22.65;45.19;100298.19;5028827;28;20049;-58
2021/07/25 04:05:09;;;;;;;0.10;0.10;;;;;;;22.89;44.67;100313.59;5029595;28;20053;-55
2021/07/25 04:07:55;;;;;;;0.47;0.47;;;;;;;22.93;44.08;100301.66;5029542;28;20052;-56
2021/07/25 04:10:41;;;;;;;0.25;0.25;;;;;;;22.99;42.71;100312.56;5029121;28;20586;-56
2021/07/25 04:13:27;;;;;;;0.10;0.10;;;;;;;22.88;43.99;100311.91;5029501;28;20503;-57
2021/07/25 04:16:13;;;;;;;0.20;0.20;;;;;;;22.96;43.94;100320.84;5014344;28;20053;-56
2021/07/25 04:18:59;;;;;;;0.25;0.25;;;;;;;22.91;43.76;100316.94;5029215;28;20103;-55
2021/07/25 04:21:45;;;;;;;0.10;0.10;;;;;;;22.96;43.33;100309.34;5028979;28;20142;-55
2021/07/25 04:24:31;;;;;;;0.10;0.10;;;;;;;23.10;43.03;100306.16;5028958;28;20045;-59
2021/07/25 04:27:17;;;;;;;0.20;0.20;;;;;;;23.16;43.55;100327.72;5029111;28;20053;-55
2021/07/25 04:30:03;;;;;;;0.10;0.10;;;;;;;23.14;41.51;100319.00;5029232;28;20056;-57
2021/07/25 04:32:49;;;;;;;0.10;0.10;;;;;;;23.41;40.91;100315.44;5029017;28;20457;-57
2021/07/25 04:35:38;;;;;;;0.10;0.10;;;;;;;23.34;40.81;100315.19;5028705;28;20136;-56
2021/07/25 04:38:24;;;;;;;0.10;0.10;;;;;;;23.32;41.04;100327.84;5029156;28;20052;-58
2021/07/25 04:41:10;;;;;;;0.15;0.15;;;;;;;23.29;41.17;100303.31;5029043;28;20049;-57
2021/07/25 04:44:04;;;;;;;0.20;0.20;;;;;;;23.46;41.21;100320.31;5014295;28;20578;-57
2021/07/25 04:46:55;;;;;;;0.13;0.13;;;;;;;23.50;41.33;100327.00;5014519;28;20422;-56
2021/07/25 04:49:50;;;;;;;0.22;0.22;;;;;;;23.53;40.88;100324.84;5028689;28;20045;-57
2021/07/25 04:52:40;;;;;;;0.20;0.20;;;;;;;23.63;40.59;100336.25;5014973;28;20148;-58
2021/07/25 04:55:26;;;;;;;;;;;;;;;23.85;40.12;100343.75;5029350;28;20088;-56
2021/07/25 04:58:12;;;;;;;0.47;0.47;;;;;;;24.03;40.03;100337.50;5014356;28;19959;-57
2021/07/25 05:00:59;;;;;;;0.30;0.30;;;;;;;24.28;39.18;100336.66;5028833;28;20038;-56
2021/07/25 05:03:46;;;;;;;0.52;0.52;;;;;;;24.52;38.21;100333.25;5013984;28;20049;-57
2021/07/25 05:06:32;;;;;;;0.20;0.20;;;;;;;24.90;37.47;100331.91;5014041;28;20041;-56
2021/07/25 05:09:18;;;;;;;0.20;0.20;;;;;;;25.30;36.48;100335.44;5028725;28;20513;-57
2021/07/25 05:12:10;;;;;;;0.17;0.17;;;;;;;25.59;35.38;100334.97;5028791;28;20128;-56
2021/07/25 05:15:06;;;;;;;0.10;0.10;;;;;;;25.75;35.21;100332.25;5028611;28;20425;-56
2021/07/25 05:17:58;;;;;;;0.10;0.10;;;;;;;26.02;34.86;100335.56;5032082;28;20046;-58
2021/07/25 05:20:52;;;;;;;0.30;0.30;;;;;;;26.19;34.56;100330.03;5031983;28;20053;-56
2021/07/25 05:23:42;;;;;;;0.10;0.10;;;;;;;26.44;34.26;100337.97;5031960;28;20123;-56
2021/07/25 05:26:28;;;;;;;0.25;0.25;;;;;;;27.06;32.88;100326.22;5018003;28;20053;-56
2021/07/25 05:28:56;;;;;;;0.30;0.30;;;;;;;27.14;32.96;100328.00;5014324;28;20081;-59
2021/07/25 05:31:31;;;;;;;0.52;0.52;;;;;;;27.91;31.47;100322.28;5032291;28;20507;-59
2021/07/25 05:33:58;;;;;;;0.30;0.30;;;;;;;28.15;30.84;100328.44;5015522;28;20049;-56
2021/07/25 05:36:24;;;;;;;0.28;0.28;;;;;;;28.31;30.53;100304.91;5031878;28;20060;-58
2021/07/25 05:38:51;;;;;;;0.13;0.13;;;;;;;28.65;30.13;100330.34;5031922;28;20532;-57
2021/07/25 05:41:17;;;;;;;0.30;0.30;;;;;;;29.07;29.45;100324.19;5014132;28;20745;-55
2021/07/25 05:43:43;;;;;;;0.20;0.20;;;;;;;29.03;29.56;100323.75;5014181;28;20058;-59
2021/07/25 05:46:09;;;;;;;0.20;0.20;;;;;;;29.15;29.49;100324.09;5031803;28;20137;-59
2021/07/25 05:48:34;;;;;;;0.28;0.28;;;;;;;28.95;29.64;100330.09;5031692;28;20053;-59
2021/07/25 05:51:03;;;;;;;0.20;0.20;;;;;;;28.75;29.77;100329.03;5031712;28;20114;-59
2021/07/25 05:53:29;;;;;;;0.22;0.22;;;;;;;28.61;30.25;100329.03;5014068;28;20142;-59
2021/07/25 05:55:55;;;;;;;0.17;0.17;;;;;;;28.79;29.94;100334.88;5031379;28;20045;-59
2021/07/25 05:58:21;;;;;;;0.22;0.22;;;;;;;28.81;29.84;100330.97;5031657;28;20137;-59
2021/07/25 06:00:47;;;;;;;0.25;0.25;;;;;;;29.08;29.64;100336.63;5031439;28;20057;-59
2021/07/25 06:03:13;;;;;;;0.10;0.10;;;;;;;29.41;29.02;100338.66;5031522;28;20051;-59
2021/07/25 06:05:39;;;;;;;0.47;0.28;;;;;;;29.53;28.93;100325.47;5013590;28;20052;-59
2021/07/25 06:08:06;;;;;;;0.20;0.20;;;;;;;29.51;28.53;100332.94;5031384;28;20049;-59
2021/07/25 06:10:33;;;;;;;0.30;0.30;;;;;;;29.68;28.19;100339.66;5013915;28;20163;-59
2021/07/25 06:13:00;;;;;;;0.10;0.10;;;;;;;29.58;27.81;100338.38;5013198;28;20518;-59
2021/07/25 06:15:27;;;;;;;0.13;0.13;;;;;;;29.55;28.05;100344.13;5031336;28;20132;-58
2021/07/25 06:17:53;;;;;;;0.47;0.47;;;;;;;29.60;28.25;100337.13;5030831;28;20060;-61
2021/07/25 06:20:19;;;;;;;0.30;0.30;;;;;;;29.81;27.76;100347.03;5031122;28;20049;-60
2021/07/25 06:22:47;;;;;;;0.20;0.20;;;;;;;29.67;28.14;100350.66;5030835;28;20111;-58
2021/07/25 06:25:14;;;;;;;0.30;0.30;;;;;;;29.61;27.96;100349.56;5030631;28;20041;-60
2021/07/25 06:27:40;;;;;;;0.10;0.10;;;;;;;29.52;27.88;100350.72;4996965;28;20060;-58
2021/07/25 06:30:08;;;;;;;0.30;0.30;;;;;;;29.59;27.66;100343.53;5030958;28;20050;-58
2021/07/25 06:32:54;;;;;;;0.20;0.20;;;;;;;29.85;27.19;100338.38;5030889;28;20095;-59
2021/07/25 06:35:21;;;;;;;0.20;0.20;;;;;;;30.00;26.74;100343.66;5013115;28;20049;-59
2021/07/25 06:37:47;;;;;;;0.20;0.20;;;;;;;29.97;26.16;100339.47;4996420;28;20133;-58
2021/07/25 06:40:14;;;;;;;0.13;0.13;;;;;;;29.93;26.03;100343.63;5013036;28;20516;-58
2021/07/25 06:42:39;;;;;;;0.10;0.10;;;;;;;30.05;26.53;100343.06;5030382;28;20049;-60
2021/07/25 06:45:06;;;;;;;0.50;0.50;;;;;;;30.20;26.18;100347.28;5030795;28;20102;-58
2021/07/25 06:47:32;;;;;;;0.43;0.43;;;;;;;30.14;25.87;100345.38;5030186;28;20423;-58
2021/07/25 06:49:58;;;;;;;0.10;0.10;;;;;;;29.83;26.07;100348.53;5030246;28;20609;-57
2021/07/25 06:52:23;;;;;;;0.10;0.10;;;;;;;29.47;26.59;100342.41;5030336;28;20088;-57
2021/07/25 06:54:50;;;;;;;0.20;0.20;;;;;;;29.33;26.65;100351.38;5030174;28;20108;-58
2021/07/25 06:57:16;;;;;;;0.10;0.10;;;;;;;29.18;26.93;100354.13;5030285;28;20057;-58
2021/07/25 06:59:42;;;;;;;0.10;0.10;;;;;;;28.95;26.66;100340.03;5028793;28;20055;-59
2021/07/25 07:02:08;;;;;;;0.10;0.10;;;;;;;28.82;26.50;100353.31;5012605;28;20045;-59
2021/07/25 07:04:34;;;;;;;0.10;0.10;;;;;;;28.74;26.78;100345.34;5012470;28;20059;-59
2021/07/25 07:07:00;;;;;;;0.10;0.10;;;;;;;28.77;26.60;100359.25;5028757;28;20049;-59
2021/07/25 07:09:26;;;;;;;0.10;0.10;;;;;;;28.62;26.89;100358.44;5030141;28;20064;-58
2021/07/25 07:11:52;;;;;;;0.10;0.10;;;;;;;28.59;26.97;100355.28;5029849;28;20037;-59
2021/07/25 07:14:18;;;;;;;0.25;0.25;;;;;;;28.67;26.79;100365.94;5030093;28;20152;-57
2021/07/25 07:16:44;;;;;;;0.13;0.13;;;;;;;28.62;26.99;100368.34;5029671;28;20083;-59
2021/07/25 07:19:10;;;;;;;0.10;0.10;;;;;;;28.71;27.07;100357.31;5030025;28;20053;-60
2021/07/25 07:21:36;;;;;;;0.25;0.25;;;;;;;29.14;26.25;100362.75;5029900;28;20052;-61
2021/07/25 07:24:02;;;;;;;0.10;0.10;;;;;;;29.20;26.17;100367.38;5029895;28;20075;-58
2021/07/25 07:26:28;;;;;;;0.10;0.10;;;;;;;29.19;26.10;100371.91;5029747;28;20049;-58
2021/07/25 07:28:55;;;;;;;0.30;0.30;;;;;;;29.34;25.83;100363.81;5011927;28;20076;-59
2021/07/25 07:31:21;;;;;;;0.17;0.17;;;;;;;29.94;24.81;100356.03;5012170;28;20511;-61
2021/07/25 07:33:47;;;;;;;0.20;0.20;;;;;;;30.32;24.30;100358.34;5029705;28;20076;-61
2021/07/25 07:36:13;;;;;;;0.80;0.80;;;;;;;30.58;23.78;100357.66;5029494;28;20057;-62
2021/07/25 07:38:39;;;;;;;0.10;0.10;;;;;;;30.37;23.69;100358.56;5028945;28;20056;-62
2021/07/25 07:41:04;;;;;;;0.10;0.10;;;;;;;30.26;23.85;100365.38;5029610;28;20053;-61
2021/07/25 07:43:30;;;;;;;0.10;0.10;;;;;;;29.84;24.35;100357.44;4995695;28;20055;-62
2021/07/25 07:45:56;;;;;;;0.10;0.10;;;;;;;29.55;24.23;100366.47;5029481;28;20135;-61
2021/07/25 07:48:25;;;;;;;0.30;0.30;;;;;;;29.50;24.52;100352.78;5029413;28;20073;-65
2021/07/25 07:50:51;;;;;;;0.15;0.15;;;;;;;29.79;24.61;100363.38;5029290;28;20054;-61
2021/07/25 07:53:33;;;;;;;0.10;0.10;;;;;;;30.02;24.66;100356.94;5029552;28;20057;-60
2021/07/25 07:55:59;;;;;;;0.20;0.20;;;;;;;30.11;24.37;100355.72;5029365;28;20053;-61
2021/07/25 07:58:25;;;;;;;0.10;0.10;;;;;;;30.15;24.13;100357.84;5029319;28;20539;-61
2021/07/25 08:00:51;;;;;;;0.15;0.15;;;;;;;29.84;24.07;100360.94;5029301;28;20081;-61
2021/07/25 08:03:17;;;;;;;0.10;0.10;;;;;;;29.07;24.12;100348.41;5011893;28;20088;-62
2021/07/25 08:05:43;;;;;;;0.10;0.10;;;;;;;28.67;24.81;100365.94;5029301;28;20104;-60
2021/07/25 08:08:09;;;;;;;0.10;0.10;;;;;;;28.59;25.13;100358.81;5029483;28;20057;-61
2021/07/25 08:10:35;;;;;;;0.10;0.10;;;;;;;28.83;24.89;100366.56;5029429;28;20092;-61
2021/07/25 08:13:01;;;;;;;0.10;0.10;;;;;;;28.91;24.83;100349.47;5029193;28;20045;-60
2021/07/25 08:15:27;;;;;;;0.10;0.10;;;;;;;28.57;24.69;100355.44;5029672;28;20398;-60
2021/07/25 08:17:53;;;;;;;0.08;0.08;;;;;;;28.23;25.34;100365.97;5029173;28;20132;-61
2021/07/25 08:20:19;;;;;;;0.00;0.00;;;;;;;28.05;25.49;100360.91;5012010;28;20099;-61
2021/07/25 08:22:45;;;;;;;0.10;0.10;;;;;;;27.98;25.79;100356.50;5028993;28;20503;-61
2021/07/25 08:25:12;;;;;;;0.10;0.10;;;;;;;27.82;25.88;100360.16;5029247;28;20066;-61
2021/07/25 08:27:37;;;;;;;0.10;0.10;;;;;;;27.63;26.67;100358.81;5029214;28;20056;-61
2021/07/25 08:30:04;;;;;;;0.00;0.00;;;;;;;27.48;26.87;100360.66;5028902;28;20060;-60
2021/07/25 08:32:30;;;;;;;0.10;0.10;;;;;;;27.50;27.18;100358.59;5029130;28;20481;-60
2021/07/25 08:34:56;;;;;;;0.00;0.00;;;;;;;27.49;26.74;100359.59;5028880;28;20037;-61
2021/07/25 08:37:22;;;;;;;0.10;0.10;;;;;;;27.45;26.28;100352.97;5028978;28;20065;-60
2021/07/25 08:39:49;;;;;;;0.10;0.10;;;;;;;27.64;26.56;100357.81;5028987;28;20050;-60
2021/07/25 08:42:17;;;;;;;0.10;0.10;;;;;;;27.92;26.68;100360.72;5029121;28;20049;-60
2021/07/25 08:44:54;;;;;;;0.17;0.17;;;;;;;27.97;26.25;100358.34;5028963;28;20124;-60
2021/07/25 08:47:34;;;;;;;0.10;0.10;;;;;;;28.04;25.50;100358.44;5028816;28;20057;-61
2021/07/25 08:50:06;;;;;;;0.20;0.20;;;;;;;28.02;25.23;100358.59;5031740;28;20085;-61
2021/07/25 08:52:33;;;;;;;0.10;0.10;;;;;;;28.05;25.79;100360.06;5015311;28;20072;-61
2021/07/25 08:55:01;;;;;;;0.10;0.10;;;;;;;28.10;25.71;100365.78;5014878;28;20444;-60
2021/07/25 08:57:30;;;;;;;0.10;0.10;;;;;;;27.98;25.56;100359.19;5032770;28;20071;-60
2021/07/25 08:59:56;;;;;;;0.10;0.10;;;;;;;27.97;26.05;100368.22;5031324;28;20431;-61
2021/07/25 09:02:24;;;;;;;0.10;0.10;;;;;;;27.81;25.90;100364.69;5015072;28;20053;-60
2021/07/25 09:04:51;;;;;;;0.10;0.10;;;;;;;27.59;25.74;100362.88;5032365;28;20140;-59
2021/07/25 09:07:18;;;;;;;0.08;0.08;;;;;;;27.39;25.76;100358.97;5032589;28;20049;-56
2021/07/25 09:09:45;;;;;;;0.10;0.10;;;;;;;27.34;26.08;100366.75;5032425;28;20103;-58
2021/07/25 09:12:12;;;;;;;0.00;0.00;;;;;;;27.27;26.55;100376.53;5032240;28;20061;-61
2021/07/25 09:14:43;;;;;;;0.10;0.10;;;;;;;27.22;26.67;100369.03;5032322;28;20302;-61
2021/07/25 09:17:09;;;;;;;0.10;0.10;;;;;;;27.16;26.42;100363.56;5014268;28;20056;-61
2021/07/25 09:19:42;;;;;;;0.10;0.10;;;;;;;27.13;26.99;100367.41;5015053;28;20050;-56
2021/07/25 09:22:13;;;;;;;0.10;0.10;;;;;;;27.16;27.39;100369.72;5014360;28;20464;-57
2021/07/25 09:24:39;;;;;;;0.00;0.00;;;;;;;27.15;27.21;100370.75;4998588;28;20140;-56
2021/07/25 09:27:05;;;;;;;0.10;0.10;;;;;;;27.17;27.51;100365.19;5031999;28;20423;-57
2021/07/25 09:29:36;;;;;;;0.10;0.10;;;;;;;27.20;27.19;100367.53;5014480;28;20113;-57
2021/07/25 09:32:10;;;;;;;0.10;0.10;;;;;;;27.31;27.04;100372.47;5031978;28;20056;-58
2021/07/25 09:34:40;;;;;;;0.10;0.10;;;;;;;27.43;26.90;100373.72;5032264;28;20056;-58
2021/07/25 09:37:09;;;;;;;;;;;;;;;27.46;26.54;100373.38;5032191;28;20102;-59
2021/07/25 09:39:39;;;;;;;0.10;0.10;;;;;;;27.47;26.67;100372.38;5031948;28;19924;-59
2021/07/25 09:42:07;;;;;;;0.93;0.88;;;;;;;27.43;26.36;100371.03;5031750;28;20057;-58
2021/07/25 09:44:48;;;;;;;;;;;;;;;27.49;26.48;100375.72;5015259;28;20499;-58
2021/07/25 09:47:34;;;;;;;0.10;0.10;;;;;;;27.49;26.89;100375.72;5031627;28;19921;-59
2021/07/25 09:50:01;;;;;;;0.00;0.00;;;;;;;27.38;26.66;100371.59;5031296;28;20140;-59
2021/07/25 09:52:31;;;;;;;0.00;0.00;;;;;;;27.33;27.20;100375.81;5013867;28;20057;-59
2021/07/25 09:54:57;;;;;;;;;;;;;;;27.24;27.34;100376.88;5031947;28;20050;-58
2021/07/25 09:57:26;;;;;;;0.10;0.10;;;;;;;27.15;27.33;100376.13;5031501;28;19921;-59
2021/07/25 09:59:53;;;;;;;0.20;0.20;;;;;;;27.13;28.01;100380.81;5030823;28;20076;-59
2021/07/25 10:02:45;;;;;;;0.30;0.30;;;;;;;27.07;27.75;100380.69;5013201;28;20049;-59
2021/07/25 10:05:12;;;;;;;0.00;0.00;;;;;;;26.87;27.78;100364.22;5013543;28;20049;-59
2021/07/25 10:07:38;;;;;;;0.03;0.03;;;;;;;26.92;27.87;100378.78;5031286;28;20045;-58
2021/07/25 10:10:05;;;;;;;0.00;0.00;;;;;;;26.86;27.76;100389.38;5013538;28;20060;-59
2021/07/25 10:12:35;;;;;;;0.28;0.28;;;;;;;26.74;27.64;100388.03;5031146;28;20052;-58
2021/07/25 10:15:03;;;;;;;0.10;0.10;;;;;;;26.49;27.93;100371.25;5030999;28;20092;-59
2021/07/25 10:17:33;;;;;;;0.00;0.00;;;;;;;26.51;28.58;100390.66;5031085;28;20142;-59
2021/07/25 10:19:59;;;;;;;0.10;0.10;;;;;;;26.50;28.47;100389.00;5030863;28;20071;-58
2021/07/25 10:22:28;;;;;;;0.00;0.00;;;;;;;26.45;29.09;100383.31;5031108;28;20517;-59
2021/07/25 10:24:54;;;;;;;0.10;0.10;;;;;;;26.34;28.59;100389.06;5030829;28;20080;-59
2021/07/25 10:27:20;;;;;;;0.00;0.00;;;;;;;26.38;28.69;100390.38;5013442;28;20148;-58
2021/07/25 10:29:46;;;;;;;0.00;0.00;;;;;;;26.41;28.89;100396.22;5013249;28;20083;-60
2021/07/25 10:32:12;;;;;;;0.20;0.20;;;;;;;26.39;28.80;100389.38;5012999;28;20045;-59
2021/07/25 10:34:40;;;;;;;0.10;0.10;;;;;;;26.41;28.46;100396.22;5013167;28;20049;-59
2021/07/25 10:37:06;;;;;;;0.20;0.20;;;;;;;26.44;28.72;100394.22;5013090;28;20527;-58
2021/07/25 10:39:32;;;;;;;0.00;0.00;;;;;;;26.50;28.56;100398.88;5030900;28;20049;-60
2021/07/25 10:41:59;;;;;;;0.10;0.10;;;;;;;26.65;28.82;100403.31;5012663;28;20075;-58
2021/07/25 10:44:25;;;;;;;0.20;0.20;;;;;;;26.73;28.49;100403.28;4996891;28;20049;-59
2021/07/25 10:47:20;;;;;;;0.10;0.10;;;;;;;26.83;28.33;100411.97;5030408;28;20050;-59
2021/07/25 10:49:56;;;;;;;0.00;0.00;;;;;;;26.91;28.49;100409.25;5030394;28;20106;-59
2021/07/25 10:52:22;;;;;;;0.10;0.10;;;;;;;27.02;28.33;100410.72;5030544;28;20057;-59
2021/07/25 10:54:48;;;;;;;0.10;0.10;;;;;;;27.14;28.02;100398.56;5030672;28;20073;-59
2021/07/25 10:57:15;;;;;;;0.10;0.10;;;;;;;27.28;28.07;100405.88;5030170;28;20045;-59
2021/07/25 10:59:50;;;;;;;0.10;0.10;;;;;;;27.42;27.64;100405.06;5030340;28;20088;-59
2021/07/25 11:02:22;;;;;;;0.10;0.10;;;;;;;27.47;27.39;100404.56;5030081;28;20053;-59
2021/07/25 11:04:48;;;;;;;0.10;0.10;;;;;;;27.52;27.04;100396.81;5030267;28;20064;-59
2021/07/25 11:07:23;;;;;;;1.98;0.52;;;;;;;27.60;27.02;100398.59;5029966;28;20136;-59
2021/07/25 11:10:05;;;;;;;0.65;0.65;;;;;;;27.57;26.46;100404.34;5030154;28;20061;-58
2021/07/25 11:12:56;;;;;;;0.10;0.10;;;;;;;27.72;26.58;100402.50;5030027;28;20132;-59
2021/07/25 11:15:28;;;;;;;0.10;0.10;;;;;;;27.82;26.54;100397.72;5012675;28;20057;-58
2021/07/25 11:18:05;;;;;;;0.10;0.10;;;;;;;27.79;26.25;100400.78;5029891;28;20041;-60
2021/07/25 11:20:38;;;;;;;0.00;0.00;;;;;;;27.68;26.06;100399.34;5030147;28;20060;-60
2021/07/25 11:23:35;;;;;;;0.10;0.10;;;;;;;27.80;26.47;100389.03;5029813;28;20053;-59
2021/07/25 11:26:32;;;;;;;0.10;0.10;;;;;;;27.70;26.12;100391.97;5013403;28;20049;-60
2021/07/25 11:29:00;;;;;;;0.10;0.10;;;;;;;27.64;26.05;100386.50;5029675;28;20615;-59
2021/07/25 11:31:36;;;;;;;0.10;0.10;;;;;;;27.54;25.96;100378.69;5029840;28;20053;-60
2021/07/25 11:34:03;;;;;;;0.00;0.00;;;;;;;27.59;26.15;100387.03;5029696;28;20527;-60
2021/07/25 11:36:29;;;;;;;0.10;0.10;;;;;;;27.58;26.06;100384.53;5012127;28;20546;-60
2021/07/25 11:38:59;;;;;;;0.10;0.10;;;;;;;27.55;26.34;100377.69;5012071;28;20087;-59
2021/07/25 11:41:29;;;;;;;0.10;0.10;;;;;;;27.76;26.00;100393.94;5029755;28;20053;-60
2021/07/25 11:44:05;;;;;;;0.00;0.00;;;;;;;27.77;25.72;100395.59;5029737;28;20056;-60
2021/07/25 11:46:45;;;;;;;0.10;0.10;;;;;;;27.81;25.48;100391.53;5029638;28;20057;-60
2021/07/25 11:49:16;;;;;;;0.10;0.10;;;;;;;27.97;25.57;100384.34;5029570;28;20049;-59
2021/07/25 11:51:59;;;;;;;0.10;0.10;;;;;;;27.93;25.75;100382.03;5029558;28;20065;-58
2021/07/25 11:54:26;;;;;;;0.63;0.63;;;;;;;27.84;26.11;100375.06;5029623;28;20132;-60
2021/07/25 11:56:59;;;;;;;0.10;0.10;;;;;;;27.83;26.11;100383.31;5029532;28;20053;-60
2021/07/25 11:59:25;;;;;;;0.10;0.10;;;;;;;27.93;25.13;100382.03;5028169;28;20057;-60
2021/07/25 12:01:52;;;;;;;0.10;0.10;;;;;;;27.94;25.46;100381.00;5029576;28;20084;-60
2021/07/25 12:04:21;;;;;;;0.00;0.00;;;;;;;27.96;24.95;100386.19;5029122;28;20099;-60
2021/07/25 12:06:57;;;;;;;0.10;0.10;;;;;;;27.95;25.24;100385.34;5029537;28;20072;-60